sensor_id;sensor_type;location;lat;lon;timestamp;P1;durP1;ratioP1;P2;durP2;ratioP2
59468;SDS011;45277;52.768;18.262;2024-01-10T00:01:14;64.20;;;26.97;;
59468;SDS011;45277;52.768;18.262;2024-01-10T00:02:49;76.20;;;30.73;;
59468;SDS011;45277;52.768;18.262;2024-01-10T00:04:20;76.60;;;31.93;;
59468;SDS011;45277;52.768;18.262;2024-01-10T00:05:52;66.13;;;28.97;;
59468;SDS011;45277;52.768;18.262;2024-01-10T00:07:23;62.60;;;25.23;;
59468;SDS011;45277;52.768;18.262;2024-01-10T00:08:54;50.43;;;24.70;;
59468;SDS011;45277;52.768;18.262;2024-01-10T00:10:26;70.37;;;31.93;;
59468;SDS011;45277;52.768;18.262;2024-01-10T00:11:57;83.00;;;31.63;;
59468;SDS011;45277;52.768;18.262;2024-01-10T00:13:31;76.22;;;33.20;;
59468;SDS011;45277;52.768;18.262;2024-01-10T00:15:03;76.47;;;33.13;;
59468;SDS011;45277;52.768;18.262;2024-01-10T00:16:36;50.77;;;25.40;;
59468;SDS011;45277;52.768;18.262;2024-01-10T00:18:08;66.38;;;31.90;;
59468;SDS011;45277;52.768;18.262;2024-01-10T00:19:39;73.63;;;33.47;;
59468;SDS011;45277;52.768;18.262;2024-01-10T00:21:11;62.47;;;27.03;;
59468;SDS011;45277;52.768;18.262;2024-01-10T00:22:42;63.35;;;29.08;;
59468;SDS011;45277;52.768;18.262;2024-01-10T00:24:13;61.88;;;30.30;;
59468;SDS011;45277;52.768;18.262;2024-01-10T00:25:45;69.13;;;31.67;;
59468;SDS011;45277;52.768;18.262;2024-01-10T00:27:16;65.27;;;30.90;;
59468;SDS011;45277;52.768;18.262;2024-01-10T00:28:48;61.00;;;29.20;;
59468;SDS011;45277;52.768;18.262;2024-01-10T00:30:19;75.20;;;30.73;;
59468;SDS011;45277;52.768;18.262;2024-01-10T00:31:50;69.90;;;32.07;;
59468;SDS011;45277;52.768;18.262;2024-01-10T00:33:23;71.18;;;30.38;;
59468;SDS011;45277;52.768;18.262;2024-01-10T00:34:55;68.85;;;30.15;;
59468;SDS011;45277;52.768;18.262;2024-01-10T00:36:26;66.40;;;29.13;;
59468;SDS011;45277;52.768;18.262;2024-01-10T00:37:57;76.65;;;30.13;;
59468;SDS011;45277;52.768;18.262;2024-01-10T00:39:29;60.43;;;27.07;;
59468;SDS011;45277;52.768;18.262;2024-01-10T00:41:00;62.97;;;29.40;;
59468;SDS011;45277;52.768;18.262;2024-01-10T00:42:31;56.70;;;24.05;;
59468;SDS011;45277;52.768;18.262;2024-01-10T00:44:03;50.08;;;24.40;;
59468;SDS011;45277;52.768;18.262;2024-01-10T00:45:34;40.92;;;18.75;;
59468;SDS011;45277;52.768;18.262;2024-01-10T00:47:05;59.20;;;25.48;;
59468;SDS011;45277;52.768;18.262;2024-01-10T00:48:37;49.33;;;23.47;;
59468;SDS011;45277;52.768;18.262;2024-01-10T00:50:08;50.45;;;22.80;;
59468;SDS011;45277;52.768;18.262;2024-01-10T00:51:40;42.95;;;22.42;;
59468;SDS011;45277;52.768;18.262;2024-01-10T00:53:13;48.90;;;22.38;;
59468;SDS011;45277;52.768;18.262;2024-01-10T00:54:45;49.00;;;21.88;;
59468;SDS011;45277;52.768;18.262;2024-01-10T00:56:18;46.65;;;23.05;;
59468;SDS011;45277;52.768;18.262;2024-01-10T00:57:51;44.00;;;18.65;;
59468;SDS011;45277;52.768;18.262;2024-01-10T00:59:22;45.63;;;21.52;;
59468;SDS011;45277;52.768;18.262;2024-01-10T01:00:54;58.72;;;24.90;;
59468;SDS011;45277;52.768;18.262;2024-01-10T01:02:27;41.40;;;19.65;;
59468;SDS011;45277;52.768;18.262;2024-01-10T01:03:58;57.57;;;23.33;;
59468;SDS011;45277;52.768;18.262;2024-01-10T01:05:32;64.60;;;24.77;;
59468;SDS011;45277;52.768;18.262;2024-01-10T01:07:04;73.65;;;25.17;;
59468;SDS011;45277;52.768;18.262;2024-01-10T01:08:36;63.33;;;26.23;;
59468;SDS011;45277;52.768;18.262;2024-01-10T01:10:07;63.20;;;25.35;;
59468;SDS011;45277;52.768;18.262;2024-01-10T01:11:40;64.10;;;24.48;;
59468;SDS011;45277;52.768;18.262;2024-01-10T01:13:12;67.13;;;25.92;;
59468;SDS011;45277;52.768;18.262;2024-01-10T01:14:43;64.57;;;25.17;;
59468;SDS011;45277;52.768;18.262;2024-01-10T01:16:16;70.35;;;27.55;;
59468;SDS011;45277;52.768;18.262;2024-01-10T01:17:48;60.42;;;24.73;;
59468;SDS011;45277;52.768;18.262;2024-01-10T01:19:19;72.22;;;25.48;;
59468;SDS011;45277;52.768;18.262;2024-01-10T01:20:52;67.45;;;23.20;;
59468;SDS011;45277;52.768;18.262;2024-01-10T01:22:23;63.97;;;24.95;;
59468;SDS011;45277;52.768;18.262;2024-01-10T01:23:55;63.70;;;23.13;;
59468;SDS011;45277;52.768;18.262;2024-01-10T01:25:27;67.25;;;23.52;;
59468;SDS011;45277;52.768;18.262;2024-01-10T01:26:58;67.65;;;24.65;;
59468;SDS011;45277;52.768;18.262;2024-01-10T01:28:30;58.78;;;19.95;;
59468;SDS011;45277;52.768;18.262;2024-01-10T01:30:02;52.33;;;20.73;;
59468;SDS011;45277;52.768;18.262;2024-01-10T01:31:34;64.18;;;23.40;;
59468;SDS011;45277;52.768;18.262;2024-01-10T01:33:05;66.45;;;24.17;;
59468;SDS011;45277;52.768;18.262;2024-01-10T01:34:37;69.07;;;26.13;;
59468;SDS011;45277;52.768;18.262;2024-01-10T01:36:09;63.72;;;22.85;;
59468;SDS011;45277;52.768;18.262;2024-01-10T01:37:41;71.97;;;24.40;;
59468;SDS011;45277;52.768;18.262;2024-01-10T01:39:13;68.95;;;23.23;;
59468;SDS011;45277;52.768;18.262;2024-01-10T01:40:45;72.15;;;25.70;;
59468;SDS011;45277;52.768;18.262;2024-01-10T01:42:17;69.40;;;28.20;;
59468;SDS011;45277;52.768;18.262;2024-01-10T01:43:49;73.97;;;25.50;;
59468;SDS011;45277;52.768;18.262;2024-01-10T01:45:20;64.10;;;24.92;;
59468;SDS011;45277;52.768;18.262;2024-01-10T01:46:52;62.70;;;25.60;;
59468;SDS011;45277;52.768;18.262;2024-01-10T01:48:25;51.75;;;20.60;;
59468;SDS011;45277;52.768;18.262;2024-01-10T01:49:57;46.60;;;19.45;;
59468;SDS011;45277;52.768;18.262;2024-01-10T01:51:28;64.93;;;22.08;;
59468;SDS011;45277;52.768;18.262;2024-01-10T01:53:02;47.42;;;18.02;;
59468;SDS011;45277;52.768;18.262;2024-01-10T01:54:34;46.78;;;19.02;;
59468;SDS011;45277;52.768;18.262;2024-01-10T01:56:07;33.78;;;15.60;;
59468;SDS011;45277;52.768;18.262;2024-01-10T01:57:39;34.15;;;17.75;;
59468;SDS011;45277;52.768;18.262;2024-01-10T01:59:11;40.55;;;16.38;;
59468;SDS011;45277;52.768;18.262;2024-01-10T02:00:42;41.92;;;16.90;;
59468;SDS011;45277;52.768;18.262;2024-01-10T02:02:35;40.45;;;17.77;;
59468;SDS011;45277;52.768;18.262;2024-01-10T02:05:38;30.35;;;13.25;;
59468;SDS011;45277;52.768;18.262;2024-01-10T02:07:10;30.63;;;14.73;;
59468;SDS011;45277;52.768;18.262;2024-01-10T02:08:41;39.40;;;16.50;;
59468;SDS011;45277;52.768;18.262;2024-01-10T02:10:12;38.38;;;16.30;;
59468;SDS011;45277;52.768;18.262;2024-01-10T02:11:44;42.33;;;19.63;;
59468;SDS011;45277;52.768;18.262;2024-01-10T02:13:16;43.75;;;20.38;;
59468;SDS011;45277;52.768;18.262;2024-01-10T02:14:47;39.17;;;17.45;;
59468;SDS011;45277;52.768;18.262;2024-01-10T02:16:19;45.28;;;19.75;;
59468;SDS011;45277;52.768;18.262;2024-01-10T02:17:50;40.55;;;17.00;;
59468;SDS011;45277;52.768;18.262;2024-01-10T02:19:22;39.42;;;16.45;;
59468;SDS011;45277;52.768;18.262;2024-01-10T02:20:54;34.00;;;15.93;;
59468;SDS011;45277;52.768;18.262;2024-01-10T02:22:26;36.25;;;15.98;;
59468;SDS011;45277;52.768;18.262;2024-01-10T02:23:57;30.60;;;14.35;;
59468;SDS011;45277;52.768;18.262;2024-01-10T02:25:28;38.05;;;15.60;;
59468;SDS011;45277;52.768;18.262;2024-01-10T02:26:59;40.50;;;15.70;;
59468;SDS011;45277;52.768;18.262;2024-01-10T02:28:31;37.17;;;17.05;;
59468;SDS011;45277;52.768;18.262;2024-01-10T02:30:03;44.25;;;17.08;;
59468;SDS011;45277;52.768;18.262;2024-01-10T02:31:36;39.28;;;19.00;;
59468;SDS011;45277;52.768;18.262;2024-01-10T02:33:07;45.55;;;18.77;;
59468;SDS011;45277;52.768;18.262;2024-01-10T02:34:39;56.33;;;21.42;;
59468;SDS011;45277;52.768;18.262;2024-01-10T02:36:10;49.53;;;20.50;;
59468;SDS011;45277;52.768;18.262;2024-01-10T02:37:41;44.90;;;18.63;;
59468;SDS011;45277;52.768;18.262;2024-01-10T02:39:13;42.88;;;18.02;;
59468;SDS011;45277;52.768;18.262;2024-01-10T02:40:44;39.95;;;18.73;;
59468;SDS011;45277;52.768;18.262;2024-01-10T02:42:15;45.15;;;19.27;;
59468;SDS011;45277;52.768;18.262;2024-01-10T02:43:47;43.67;;;19.17;;
59468;SDS011;45277;52.768;18.262;2024-01-10T02:45:18;41.17;;;20.50;;
59468;SDS011;45277;52.768;18.262;2024-01-10T02:46:50;35.90;;;17.08;;
59468;SDS011;45277;52.768;18.262;2024-01-10T02:48:21;39.83;;;16.45;;
59468;SDS011;45277;52.768;18.262;2024-01-10T02:49:52;38.08;;;16.58;;
59468;SDS011;45277;52.768;18.262;2024-01-10T02:51:26;51.30;;;18.67;;
59468;SDS011;45277;52.768;18.262;2024-01-10T02:52:59;38.00;;;15.18;;
59468;SDS011;45277;52.768;18.262;2024-01-10T02:54:30;41.13;;;17.48;;
59468;SDS011;45277;52.768;18.262;2024-01-10T02:56:01;48.33;;;17.17;;
59468;SDS011;45277;52.768;18.262;2024-01-10T02:57:33;43.50;;;16.88;;
59468;SDS011;45277;52.768;18.262;2024-01-10T02:59:04;36.22;;;15.48;;
59468;SDS011;45277;52.768;18.262;2024-01-10T03:00:35;39.47;;;14.30;;
59468;SDS011;45277;52.768;18.262;2024-01-10T03:02:08;31.10;;;12.65;;
59468;SDS011;45277;52.768;18.262;2024-01-10T03:03:39;34.95;;;16.15;;
59468;SDS011;45277;52.768;18.262;2024-01-10T03:05:10;36.22;;;15.00;;
59468;SDS011;45277;52.768;18.262;2024-01-10T03:06:42;35.15;;;14.45;;
59468;SDS011;45277;52.768;18.262;2024-01-10T03:08:13;40.95;;;14.77;;
59468;SDS011;45277;52.768;18.262;2024-01-10T03:09:44;40.45;;;16.05;;
59468;SDS011;45277;52.768;18.262;2024-01-10T03:11:16;44.83;;;16.67;;
59468;SDS011;45277;52.768;18.262;2024-01-10T03:12:47;37.03;;;16.75;;
59468;SDS011;45277;52.768;18.262;2024-01-10T03:14:18;36.70;;;17.02;;
59468;SDS011;45277;52.768;18.262;2024-01-10T03:15:50;30.45;;;14.82;;
59468;SDS011;45277;52.768;18.262;2024-01-10T03:17:21;34.85;;;15.98;;
59468;SDS011;45277;52.768;18.262;2024-01-10T03:18:52;34.92;;;16.30;;
59468;SDS011;45277;52.768;18.262;2024-01-10T03:20:24;43.30;;;19.65;;
59468;SDS011;45277;52.768;18.262;2024-01-10T03:21:55;46.40;;;21.10;;
59468;SDS011;45277;52.768;18.262;2024-01-10T03:23:26;43.53;;;19.20;;
59468;SDS011;45277;52.768;18.262;2024-01-10T03:24:58;44.80;;;18.55;;
59468;SDS011;45277;52.768;18.262;2024-01-10T03:26:29;49.60;;;26.00;;
59468;SDS011;45277;52.768;18.262;2024-01-10T03:28:01;57.75;;;24.67;;
59468;SDS011;45277;52.768;18.262;2024-01-10T03:29:32;70.47;;;28.58;;
59468;SDS011;45277;52.768;18.262;2024-01-10T03:31:05;62.90;;;27.48;;
59468;SDS011;45277;52.768;18.262;2024-01-10T03:32:36;57.90;;;26.85;;
59468;SDS011;45277;52.768;18.262;2024-01-10T03:34:08;57.13;;;27.33;;
59468;SDS011;45277;52.768;18.262;2024-01-10T03:35:39;65.30;;;28.67;;
59468;SDS011;45277;52.768;18.262;2024-01-10T03:37:10;66.18;;;32.85;;
59468;SDS011;45277;52.768;18.262;2024-01-10T03:38:42;64.05;;;29.20;;
59468;SDS011;45277;52.768;18.262;2024-01-10T03:40:14;62.25;;;29.65;;
59468;SDS011;45277;52.768;18.262;2024-01-10T03:41:46;59.40;;;28.88;;
59468;SDS011;45277;52.768;18.262;2024-01-10T03:43:18;71.18;;;31.77;;
59468;SDS011;45277;52.768;18.262;2024-01-10T03:44:49;72.78;;;32.80;;
59468;SDS011;45277;52.768;18.262;2024-01-10T03:46:20;82.35;;;35.72;;
59468;SDS011;45277;52.768;18.262;2024-01-10T03:47:52;68.20;;;29.10;;
59468;SDS011;45277;52.768;18.262;2024-01-10T03:49:23;74.00;;;33.00;;
59468;SDS011;45277;52.768;18.262;2024-01-10T03:50:54;72.00;;;32.40;;
59468;SDS011;45277;52.768;18.262;2024-01-10T03:52:26;81.28;;;34.90;;
59468;SDS011;45277;52.768;18.262;2024-01-10T03:53:57;76.00;;;33.47;;
59468;SDS011;45277;52.768;18.262;2024-01-10T03:55:28;71.75;;;31.60;;
59468;SDS011;45277;52.768;18.262;2024-01-10T03:57:00;64.60;;;28.65;;
59468;SDS011;45277;52.768;18.262;2024-01-10T03:58:31;58.15;;;26.63;;
59468;SDS011;45277;52.768;18.262;2024-01-10T04:00:03;71.18;;;32.42;;
59468;SDS011;45277;52.768;18.262;2024-01-10T04:01:37;76.60;;;32.85;;
59468;SDS011;45277;52.768;18.262;2024-01-10T04:03:09;68.85;;;31.63;;
59468;SDS011;45277;52.768;18.262;2024-01-10T04:04:40;74.63;;;31.08;;
59468;SDS011;45277;52.768;18.262;2024-01-10T04:06:12;83.10;;;31.17;;
59468;SDS011;45277;52.768;18.262;2024-01-10T04:07:43;81.70;;;35.55;;
59468;SDS011;45277;52.768;18.262;2024-01-10T04:09:15;66.30;;;30.38;;
59468;SDS011;45277;52.768;18.262;2024-01-10T04:10:47;67.43;;;31.15;;
59468;SDS011;45277;52.768;18.262;2024-01-10T04:12:18;76.28;;;31.48;;
59468;SDS011;45277;52.768;18.262;2024-01-10T04:13:49;76.60;;;32.08;;
59468;SDS011;45277;52.768;18.262;2024-01-10T04:15:21;60.97;;;25.40;;
59468;SDS011;45277;52.768;18.262;2024-01-10T04:16:53;66.82;;;27.98;;
59468;SDS011;45277;52.768;18.262;2024-01-10T04:18:24;71.22;;;29.73;;
59468;SDS011;45277;52.768;18.262;2024-01-10T04:19:56;66.50;;;30.70;;
59468;SDS011;45277;52.768;18.262;2024-01-10T04:21:28;66.18;;;29.60;;
59468;SDS011;45277;52.768;18.262;2024-01-10T04:22:59;68.07;;;29.05;;
59468;SDS011;45277;52.768;18.262;2024-01-10T04:24:31;70.18;;;30.20;;
59468;SDS011;45277;52.768;18.262;2024-01-10T04:26:02;72.15;;;32.60;;
59468;SDS011;45277;52.768;18.262;2024-01-10T04:27:34;64.50;;;29.23;;
59468;SDS011;45277;52.768;18.262;2024-01-10T04:29:05;64.13;;;29.90;;
59468;SDS011;45277;52.768;18.262;2024-01-10T04:30:37;69.40;;;29.58;;
59468;SDS011;45277;52.768;18.262;2024-01-10T04:32:08;65.03;;;28.02;;
59468;SDS011;45277;52.768;18.262;2024-01-10T04:33:40;77.63;;;33.70;;
59468;SDS011;45277;52.768;18.262;2024-01-10T04:35:11;78.55;;;31.15;;
59468;SDS011;45277;52.768;18.262;2024-01-10T04:36:42;68.15;;;29.45;;
59468;SDS011;45277;52.768;18.262;2024-01-10T04:38:14;73.32;;;29.73;;
59468;SDS011;45277;52.768;18.262;2024-01-10T04:39:45;76.18;;;31.42;;
59468;SDS011;45277;52.768;18.262;2024-01-10T04:41:16;65.53;;;29.15;;
59468;SDS011;45277;52.768;18.262;2024-01-10T04:42:48;66.85;;;29.13;;
59468;SDS011;45277;52.768;18.262;2024-01-10T04:44:20;64.20;;;28.92;;
59468;SDS011;45277;52.768;18.262;2024-01-10T04:45:51;71.40;;;33.17;;
59468;SDS011;45277;52.768;18.262;2024-01-10T04:47:23;71.88;;;31.33;;
59468;SDS011;45277;52.768;18.262;2024-01-10T04:48:54;70.57;;;31.15;;
59468;SDS011;45277;52.768;18.262;2024-01-10T04:50:25;67.43;;;31.13;;
59468;SDS011;45277;52.768;18.262;2024-01-10T04:51:57;65.05;;;30.35;;
59468;SDS011;45277;52.768;18.262;2024-01-10T04:53:28;59.78;;;25.85;;
59468;SDS011;45277;52.768;18.262;2024-01-10T04:55:00;48.63;;;24.42;;
59468;SDS011;45277;52.768;18.262;2024-01-10T04:56:33;56.17;;;25.92;;
59468;SDS011;45277;52.768;18.262;2024-01-10T04:58:06;50.97;;;23.55;;
59468;SDS011;45277;52.768;18.262;2024-01-10T04:59:38;48.33;;;20.75;;
59468;SDS011;45277;52.768;18.262;2024-01-10T05:01:09;49.13;;;20.25;;
59468;SDS011;45277;52.768;18.262;2024-01-10T05:02:41;55.13;;;21.73;;
59468;SDS011;45277;52.768;18.262;2024-01-10T05:04:12;53.60;;;23.75;;
59468;SDS011;45277;52.768;18.262;2024-01-10T05:05:43;52.67;;;21.30;;
59468;SDS011;45277;52.768;18.262;2024-01-10T05:07:15;44.42;;;21.20;;
59468;SDS011;45277;52.768;18.262;2024-01-10T05:08:46;45.25;;;19.90;;
59468;SDS011;45277;52.768;18.262;2024-01-10T05:10:18;50.95;;;20.25;;
59468;SDS011;45277;52.768;18.262;2024-01-10T05:11:49;47.33;;;21.98;;
59468;SDS011;45277;52.768;18.262;2024-01-10T05:13:21;50.10;;;22.15;;
59468;SDS011;45277;52.768;18.262;2024-01-10T05:14:53;46.88;;;20.08;;
59468;SDS011;45277;52.768;18.262;2024-01-10T05:16:24;42.72;;;20.45;;
59468;SDS011;45277;52.768;18.262;2024-01-10T05:17:56;49.13;;;20.70;;
59468;SDS011;45277;52.768;18.262;2024-01-10T05:19:27;49.10;;;21.27;;
59468;SDS011;45277;52.768;18.262;2024-01-10T05:21:00;40.50;;;18.52;;
59468;SDS011;45277;52.768;18.262;2024-01-10T05:22:31;43.40;;;18.77;;
59468;SDS011;45277;52.768;18.262;2024-01-10T05:24:03;42.80;;;19.92;;
59468;SDS011;45277;52.768;18.262;2024-01-10T05:25:35;41.30;;;19.35;;
59468;SDS011;45277;52.768;18.262;2024-01-10T05:27:06;44.15;;;20.67;;
59468;SDS011;45277;52.768;18.262;2024-01-10T05:28:38;45.75;;;18.45;;
59468;SDS011;45277;52.768;18.262;2024-01-10T05:30:09;37.80;;;16.55;;
59468;SDS011;45277;52.768;18.262;2024-01-10T05:31:43;42.45;;;19.50;;
59468;SDS011;45277;52.768;18.262;2024-01-10T05:33:14;41.65;;;17.17;;
59468;SDS011;45277;52.768;18.262;2024-01-10T05:34:46;38.40;;;18.13;;
59468;SDS011;45277;52.768;18.262;2024-01-10T05:36:17;43.83;;;20.15;;
59468;SDS011;45277;52.768;18.262;2024-01-10T05:37:48;48.45;;;22.05;;
59468;SDS011;45277;52.768;18.262;2024-01-10T05:39:20;46.17;;;19.42;;
59468;SDS011;45277;52.768;18.262;2024-01-10T05:40:52;40.28;;;18.45;;
59468;SDS011;45277;52.768;18.262;2024-01-10T05:42:23;50.70;;;19.05;;
59468;SDS011;45277;52.768;18.262;2024-01-10T05:43:55;49.63;;;21.60;;
59468;SDS011;45277;52.768;18.262;2024-01-10T05:45:26;54.00;;;21.23;;
59468;SDS011;45277;52.768;18.262;2024-01-10T05:46:58;48.38;;;20.20;;
59468;SDS011;45277;52.768;18.262;2024-01-10T05:48:30;78.72;;;25.70;;
59468;SDS011;45277;52.768;18.262;2024-01-10T05:50:02;63.80;;;23.15;;
59468;SDS011;45277;52.768;18.262;2024-01-10T05:51:37;165.95;;;39.33;;
59468;SDS011;45277;52.768;18.262;2024-01-10T05:53:08;55.60;;;20.05;;
59468;SDS011;45277;52.768;18.262;2024-01-10T05:54:40;54.60;;;21.67;;
59468;SDS011;45277;52.768;18.262;2024-01-10T05:56:12;131.68;;;34.50;;
59468;SDS011;45277;52.768;18.262;2024-01-10T05:57:43;112.10;;;30.60;;
59468;SDS011;45277;52.768;18.262;2024-01-10T05:59:15;110.10;;;29.45;;
59468;SDS011;45277;52.768;18.262;2024-01-10T06:00:47;42.55;;;18.00;;
59468;SDS011;45277;52.768;18.262;2024-01-10T06:02:19;112.78;;;29.65;;
59468;SDS011;45277;52.768;18.262;2024-01-10T06:03:50;66.78;;;20.80;;
59468;SDS011;45277;52.768;18.262;2024-01-10T06:05:21;24.52;;;9.75;;
59468;SDS011;45277;52.768;18.262;2024-01-10T06:06:53;33.33;;;13.25;;
59468;SDS011;45277;52.768;18.262;2024-01-10T06:08:25;30.63;;;12.25;;
59468;SDS011;45277;52.768;18.262;2024-01-10T06:09:57;25.52;;;10.75;;
59468;SDS011;45277;52.768;18.262;2024-01-10T06:11:28;24.55;;;11.63;;
59468;SDS011;45277;52.768;18.262;2024-01-10T06:13:00;25.33;;;12.68;;
59468;SDS011;45277;52.768;18.262;2024-01-10T06:14:32;26.75;;;12.82;;
59468;SDS011;45277;52.768;18.262;2024-01-10T06:16:03;34.60;;;14.43;;
59468;SDS011;45277;52.768;18.262;2024-01-10T06:17:35;32.80;;;14.75;;
59468;SDS011;45277;52.768;18.262;2024-01-10T06:19:07;25.48;;;13.32;;
59468;SDS011;45277;52.768;18.262;2024-01-10T06:20:38;34.33;;;14.93;;
59468;SDS011;45277;52.768;18.262;2024-01-10T06:22:09;35.72;;;14.32;;
59468;SDS011;45277;52.768;18.262;2024-01-10T06:23:42;36.80;;;13.88;;
59468;SDS011;45277;52.768;18.262;2024-01-10T06:25:13;30.80;;;13.23;;
59468;SDS011;45277;52.768;18.262;2024-01-10T06:26:44;28.80;;;16.30;;
59468;SDS011;45277;52.768;18.262;2024-01-10T06:28:16;47.85;;;25.85;;
59468;SDS011;45277;52.768;18.262;2024-01-10T06:29:47;28.75;;;14.40;;
59468;SDS011;45277;52.768;18.262;2024-01-10T06:31:19;50.38;;;20.40;;
59468;SDS011;45277;52.768;18.262;2024-01-10T06:32:51;87.15;;;30.60;;
59468;SDS011;45277;52.768;18.262;2024-01-10T06:34:22;48.22;;;21.35;;
59468;SDS011;45277;52.768;18.262;2024-01-10T06:35:53;31.63;;;15.15;;
59468;SDS011;45277;52.768;18.262;2024-01-10T06:37:25;60.30;;;24.88;;
59468;SDS011;45277;52.768;18.262;2024-01-10T06:38:58;95.57;;;35.60;;
59468;SDS011;45277;52.768;18.262;2024-01-10T06:40:29;37.15;;;16.75;;
59468;SDS011;45277;52.768;18.262;2024-01-10T06:42:01;49.03;;;22.20;;
59468;SDS011;45277;52.768;18.262;2024-01-10T06:43:36;22.73;;;12.88;;
59468;SDS011;45277;52.768;18.262;2024-01-10T06:45:08;33.65;;;15.60;;
59468;SDS011;45277;52.768;18.262;2024-01-10T06:46:40;32.75;;;16.60;;
59468;SDS011;45277;52.768;18.262;2024-01-10T06:48:11;27.30;;;15.23;;
59468;SDS011;45277;52.768;18.262;2024-01-10T06:49:43;25.42;;;12.60;;
59468;SDS011;45277;52.768;18.262;2024-01-10T06:51:15;31.00;;;11.93;;
59468;SDS011;45277;52.768;18.262;2024-01-10T06:52:47;31.80;;;13.63;;
59468;SDS011;45277;52.768;18.262;2024-01-10T06:54:18;28.60;;;13.73;;
59468;SDS011;45277;52.768;18.262;2024-01-10T06:55:50;53.30;;;19.10;;
59468;SDS011;45277;52.768;18.262;2024-01-10T06:57:21;105.60;;;29.73;;
59468;SDS011;45277;52.768;18.262;2024-01-10T06:58:52;63.58;;;22.70;;
59468;SDS011;45277;52.768;18.262;2024-01-10T07:00:25;113.50;;;30.23;;
59468;SDS011;45277;52.768;18.262;2024-01-10T07:01:56;91.93;;;32.42;;
59468;SDS011;45277;52.768;18.262;2024-01-10T07:03:28;63.95;;;23.00;;
59468;SDS011;45277;52.768;18.262;2024-01-10T07:04:59;80.90;;;25.33;;
59468;SDS011;45277;52.768;18.262;2024-01-10T07:06:31;130.68;;;35.28;;
59468;SDS011;45277;52.768;18.262;2024-01-10T07:08:02;73.68;;;26.48;;
59468;SDS011;45277;52.768;18.262;2024-01-10T07:09:34;52.90;;;21.73;;
59468;SDS011;45277;52.768;18.262;2024-01-10T07:11:05;43.75;;;18.55;;
59468;SDS011;45277;52.768;18.262;2024-01-10T07:12:36;42.00;;;17.83;;
59468;SDS011;45277;52.768;18.262;2024-01-10T07:14:08;31.52;;;16.70;;
59468;SDS011;45277;52.768;18.262;2024-01-10T07:15:39;34.13;;;17.02;;
59468;SDS011;45277;52.768;18.262;2024-01-10T07:17:10;48.10;;;19.48;;
59468;SDS011;45277;52.768;18.262;2024-01-10T07:18:42;34.83;;;13.55;;
59468;SDS011;45277;52.768;18.262;2024-01-10T07:20:16;28.60;;;12.70;;
59468;SDS011;45277;52.768;18.262;2024-01-10T07:21:47;27.60;;;12.25;;
59468;SDS011;45277;52.768;18.262;2024-01-10T07:23:18;33.30;;;17.23;;
59468;SDS011;45277;52.768;18.262;2024-01-10T07:24:50;24.58;;;13.10;;
59468;SDS011;45277;52.768;18.262;2024-01-10T07:26:21;29.38;;;14.43;;
59468;SDS011;45277;52.768;18.262;2024-01-10T07:27:52;26.73;;;15.52;;
59468;SDS011;45277;52.768;18.262;2024-01-10T07:29:24;20.90;;;12.25;;
59468;SDS011;45277;52.768;18.262;2024-01-10T07:30:55;36.40;;;16.58;;
59468;SDS011;45277;52.768;18.262;2024-01-10T07:32:26;49.80;;;22.55;;
59468;SDS011;45277;52.768;18.262;2024-01-10T07:33:58;30.63;;;13.98;;
59468;SDS011;45277;52.768;18.262;2024-01-10T07:35:29;71.43;;;28.08;;
59468;SDS011;45277;52.768;18.262;2024-01-10T07:37:01;95.65;;;29.20;;
59468;SDS011;45277;52.768;18.262;2024-01-10T07:38:33;63.53;;;24.13;;
59468;SDS011;45277;52.768;18.262;2024-01-10T07:40:05;108.47;;;29.73;;
59468;SDS011;45277;52.768;18.262;2024-01-10T07:41:37;83.18;;;25.38;;
59468;SDS011;45277;52.768;18.262;2024-01-10T07:43:09;40.63;;;17.73;;
59468;SDS011;45277;52.768;18.262;2024-01-10T07:44:41;29.90;;;15.35;;
59468;SDS011;45277;52.768;18.262;2024-01-10T07:46:13;38.35;;;18.73;;
59468;SDS011;45277;52.768;18.262;2024-01-10T07:47:45;39.95;;;18.90;;
59468;SDS011;45277;52.768;18.262;2024-01-10T07:49:17;37.75;;;16.17;;
59468;SDS011;45277;52.768;18.262;2024-01-10T07:50:49;42.35;;;18.25;;
59468;SDS011;45277;52.768;18.262;2024-01-10T07:52:20;36.05;;;14.57;;
59468;SDS011;45277;52.768;18.262;2024-01-10T07:53:51;26.00;;;13.55;;
59468;SDS011;45277;52.768;18.262;2024-01-10T07:55:23;36.58;;;16.23;;
59468;SDS011;45277;52.768;18.262;2024-01-10T07:56:54;35.63;;;15.95;;
59468;SDS011;45277;52.768;18.262;2024-01-10T07:58:25;43.97;;;18.75;;
59468;SDS011;45277;52.768;18.262;2024-01-10T07:59:58;39.67;;;17.75;;
59468;SDS011;45277;52.768;18.262;2024-01-10T08:01:29;29.52;;;15.82;;
59468;SDS011;45277;52.768;18.262;2024-01-10T08:03:00;136.90;;;36.55;;
59468;SDS011;45277;52.768;18.262;2024-01-10T08:04:32;148.27;;;41.03;;
59468;SDS011;45277;52.768;18.262;2024-01-10T08:06:03;107.57;;;32.25;;
59468;SDS011;45277;52.768;18.262;2024-01-10T08:07:38;74.00;;;23.98;;
59468;SDS011;45277;52.768;18.262;2024-01-10T08:09:10;60.92;;;22.10;;
59468;SDS011;45277;52.768;18.262;2024-01-10T08:10:41;41.22;;;19.00;;
59468;SDS011;45277;52.768;18.262;2024-01-10T08:12:13;78.82;;;26.58;;
59468;SDS011;45277;52.768;18.262;2024-01-10T08:13:45;57.38;;;24.85;;
59468;SDS011;45277;52.768;18.262;2024-01-10T08:15:16;57.50;;;25.85;;
59468;SDS011;45277;52.768;18.262;2024-01-10T08:16:48;102.93;;;34.15;;
59468;SDS011;45277;52.768;18.262;2024-01-10T08:18:20;67.18;;;25.58;;
59468;SDS011;45277;52.768;18.262;2024-01-10T08:19:52;50.88;;;20.80;;
59468;SDS011;45277;52.768;18.262;2024-01-10T08:21:23;56.92;;;21.88;;
59468;SDS011;45277;52.768;18.262;2024-01-10T08:22:56;61.17;;;25.17;;
59468;SDS011;45277;52.768;18.262;2024-01-10T08:24:28;54.33;;;22.77;;
59468;SDS011;45277;52.768;18.262;2024-01-10T08:25:59;50.85;;;21.23;;
59468;SDS011;45277;52.768;18.262;2024-01-10T08:27:31;55.10;;;23.45;;
59468;SDS011;45277;52.768;18.262;2024-01-10T08:29:03;45.67;;;20.27;;
59468;SDS011;45277;52.768;18.262;2024-01-10T08:30:35;52.90;;;23.63;;
59468;SDS011;45277;52.768;18.262;2024-01-10T08:32:06;49.50;;;22.83;;
59468;SDS011;45277;52.768;18.262;2024-01-10T08:33:38;67.15;;;26.40;;
59468;SDS011;45277;52.768;18.262;2024-01-10T08:35:09;45.97;;;20.98;;
59468;SDS011;45277;52.768;18.262;2024-01-10T08:36:41;63.10;;;26.08;;
59468;SDS011;45277;52.768;18.262;2024-01-10T08:38:13;90.97;;;34.00;;
59468;SDS011;45277;52.768;18.262;2024-01-10T08:39:44;64.07;;;24.50;;
59468;SDS011;45277;52.768;18.262;2024-01-10T08:41:16;48.00;;;21.70;;
59468;SDS011;45277;52.768;18.262;2024-01-10T08:42:50;42.80;;;19.58;;
59468;SDS011;45277;52.768;18.262;2024-01-10T08:44:22;36.60;;;19.40;;
59468;SDS011;45277;52.768;18.262;2024-01-10T08:45:54;41.28;;;20.38;;
59468;SDS011;45277;52.768;18.262;2024-01-10T08:47:26;45.80;;;21.08;;
59468;SDS011;45277;52.768;18.262;2024-01-10T08:48:57;56.20;;;24.92;;
59468;SDS011;45277;52.768;18.262;2024-01-10T08:50:29;64.57;;;28.65;;